Time;durP1;ratioP1;P1;durP2;ratioP2;P2;SDS_P1;SDS_P2;PMS_P1;PMS_P2;Temp;Humidity;BMP_temperature;BMP_pressure;BME280_temperature;BME280_humidity;BME280_pressure;Samples;Min_cycle;Max_cycle;Signal;HPM_P1;HPM_P2
2021/05/16 00:04:35;;;;;;;3.25;1.40;;;9.40;99.90;;;;;;10412152;28;20056;-63
2021/05/16 00:09:38;;;;;;;5.65;1.58;;;9.40;99.90;;;;;;10415728;28;20057;-63
2021/05/16 00:14:41;;;;;;;3.78;1.50;;;9.40;99.90;;;;;;10405804;28;20045;-63
2021/05/16 00:19:43;;;;;;;3.88;1.77;;;9.30;99.90;;;;;;10412657;28;20052;-63
2021/05/16 00:24:45;;;;;;;3.40;1.42;;;9.30;99.90;;;;;;10410581;28;20045;-62
2021/05/16 00:29:46;;;;;;;6.00;1.90;;;9.30;99.90;;;;;;10410820;28;20053;-62
2021/05/16 00:34:48;;;;;;;4.53;1.63;;;9.30;99.90;;;;;;10407871;28;20049;-60
2021/05/16 00:39:50;;;;;;;9.15;2.33;;;9.40;99.90;;;;;;10411192;28;20052;-60
2021/05/16 00:45:07;;;;;;;7.38;2.75;;;9.30;99.90;;;;;;10413427;28;20096;-61
2021/05/16 00:50:10;;;;;;;8.73;3.05;;;9.30;99.90;;;;;;10413283;28;20511;-62
2021/05/16 00:55:13;;;;;;;4.82;1.95;;;9.20;99.90;;;;;;10411303;28;20107;-62
2021/05/16 01:00:18;;;;;;;9.27;2.88;;;9.30;99.90;;;;;;10413073;28;20053;-62
2021/05/16 01:05:20;;;;;;;33.15;5.10;;;9.30;99.90;;;;;;10418183;28;20461;-62
2021/05/16 01:10:21;;;;;;;7.80;2.92;;;9.40;99.90;;;;;;10420566;28;20470;-62
2021/05/16 01:15:26;;;;;;;7.55;2.80;;;9.40;99.90;;;;;;10416199;28;20053;-62
2021/05/16 01:20:31;;;;;;;18.13;4.47;;;9.40;99.90;;;;;;10418745;28;20057;-62
2021/05/16 01:25:39;;;;;;;16.27;3.13;;;9.40;99.90;;;;;;10419105;28;20053;-62
2021/05/16 01:30:41;;;;;;;;;;;9.40;99.90;;;;;;10418312;28;20507;-62
2021/05/16 01:35:43;;;;;;;6.00;3.30;;;9.40;99.90;;;;;;10417503;28;19932;-63
2021/05/16 01:40:45;;;;;;;9.57;2.38;;;9.40;99.90;;;;;;10418753;28;20064;-61
2021/05/16 01:45:47;;;;;;;8.77;1.95;;;9.40;99.90;;;;;;10415482;28;20101;-61
2021/05/16 01:50:49;;;;;;;6.65;2.22;;;9.50;99.90;;;;;;10416555;28;20079;-62
2021/05/16 01:55:50;;;;;;;9.27;2.42;;;9.40;99.90;;;;;;10409161;28;20040;-62
2021/05/16 02:00:52;;;;;;;7.30;4.05;;;9.40;99.90;;;;;;10393407;28;20404;-62
2021/05/16 02:05:55;;;;;;;3.75;2.28;;;9.50;99.90;;;;;;10418208;28;20175;-62
2021/05/16 02:10:57;;;;;;;6.03;2.50;;;9.40;99.90;;;;;;10417968;28;20365;-62
2021/05/16 02:15:58;;;;;;;5.30;2.42;;;9.50;99.90;;;;;;10415399;28;20118;-61
2021/05/16 02:21:01;;;;;;;7.40;1.95;;;9.50;99.90;;;;;;10415626;28;20064;-63
2021/05/16 02:26:04;;;;;;;4.45;1.80;;;9.50;99.90;;;;;;10400601;28;20060;-63
2021/05/16 02:31:13;;;;;;;4.22;2.03;;;9.40;99.90;;;;;;10415420;28;20094;-62
2021/05/16 02:36:14;;;;;;;6.40;2.13;;;9.40;99.90;;;;;;10415596;28;20472;-62
2021/05/16 02:41:16;;;;;;;8.93;2.05;;;9.40;99.90;;;;;;10411716;28;20527;-62
2021/05/16 02:46:18;;;;;;;3.33;1.20;;;9.30;99.90;;;;;;10411338;28;20087;-62
2021/05/16 02:51:20;;;;;;;3.83;1.30;;;9.30;99.90;;;;;;10417864;28;20060;-62
2021/05/16 02:56:22;;;;;;;4.45;1.67;;;9.30;99.90;;;;;;10410602;28;20048;-62
2021/05/16 03:01:24;;;;;;;7.18;1.00;;;9.30;99.90;;;;;;10418998;28;20049;-62
2021/05/16 03:06:26;;;;;;;8.48;1.70;;;9.30;99.90;;;;;;10410758;28;20041;-62
2021/05/16 03:11:27;;;;;;;3.38;0.98;;;9.30;99.90;;;;;;10411996;28;20123;-62
2021/05/16 03:16:30;;;;;;;4.40;1.40;;;9.40;99.90;;;;;;10411905;28;20400;-62
2021/05/16 03:21:31;;;;;;;5.78;1.38;;;9.40;99.90;;;;;;10416058;28;20088;-62
2021/05/16 03:26:33;;;;;;;5.97;1.98;;;9.40;99.90;;;;;;10405868;28;20072;-62
2021/05/16 03:31:35;;;;;;;8.60;1.80;;;9.40;99.90;;;;;;10384513;28;20056;-62
2021/05/16 03:36:37;;;;;;;9.10;2.78;;;9.40;99.90;;;;;;10417925;28;20055;-65
2021/05/16 03:41:38;;;;;;;90.88;16.80;;;9.40;99.90;;;;;;10412504;28;20045;-65
2021/05/16 03:46:40;;;;;;;18.15;4.10;;;9.40;99.90;;;;;;10412915;28;20060;-64
2021/05/16 03:51:43;;;;;;;5.65;1.90;;;9.50;99.90;;;;;;10391753;28;20412;-64
2021/05/16 03:56:45;;;;;;;4.90;0.93;;;9.40;99.90;;;;;;10409897;28;20052;-64
2021/05/16 04:01:47;;;;;;;9.10;1.00;;;9.30;99.90;;;;;;10409006;28;20095;-64
2021/05/16 04:06:51;;;;;;;5.72;1.60;;;9.40;99.90;;;;;;10402175;28;20040;-64
2021/05/16 04:11:53;;;;;;;7.55;1.23;;;9.40;99.90;;;;;;10374519;28;20041;-64
2021/05/16 04:16:55;;;;;;;4.93;1.50;;;9.40;99.90;;;;;;10395409;28;20041;-65
2021/05/16 04:21:59;;;;;;;2.50;0.80;;;9.40;99.90;;;;;;10353782;28;20057;-64
2021/05/16 04:27:02;;;;;;;4.15;0.90;;;9.50;99.90;;;;;;10398181;28;20052;-65
2021/05/16 04:32:04;;;;;;;8.30;1.25;;;9.60;99.90;;;;;;10412460;28;20048;-65
2021/05/16 04:37:06;;;;;;;3.47;0.93;;;9.60;99.90;;;;;;10392671;28;20061;-65
2021/05/16 04:42:09;;;;;;;3.17;1.20;;;9.70;99.90;;;;;;10406313;28;20053;-65
2021/05/16 04:47:13;;;;;;;4.75;0.82;;;9.70;99.90;;;;;;10409264;28;20049;-65
2021/05/16 04:52:15;;;;;;;10.80;2.05;;;9.60;99.90;;;;;;10405626;28;20047;-65
2021/05/16 04:57:17;;;;;;;3.30;1.05;;;9.60;99.90;;;;;;10406249;28;20065;-64
2021/05/16 05:02:19;;;;;;;5.85;1.10;;;9.60;99.90;;;;;;10405631;28;20407;-65
2021/05/16 05:07:21;;;;;;;3.35;1.20;;;9.70;99.90;;;;;;10413752;28;20053;-64
2021/05/16 05:12:22;;;;;;;2.10;0.85;;;9.70;99.90;;;;;;10414161;28;20111;-64
2021/05/16 05:17:24;;;;;;;4.88;0.90;;;9.80;99.90;;;;;;10406046;28;20400;-65
2021/05/16 05:22:27;;;;;;;4.18;1.70;;;10.00;99.90;;;;;;10392155;28;20060;-65
2021/05/16 05:27:28;;;;;;;10.48;2.97;;;10.20;99.90;;;;;;10406469;28;20061;-64
2021/05/16 05:32:30;;;;;;;2.90;1.00;;;10.30;99.90;;;;;;10408253;28;20049;-65
2021/05/16 05:37:32;;;;;;;5.45;1.45;;;10.50;99.90;;;;;;10410249;28;20061;-64
2021/05/16 05:42:33;;;;;;;0.70;0.50;;;10.60;99.90;;;;;;10404488;28;20065;-65
2021/05/16 05:47:36;;;;;;;4.45;1.02;;;10.70;99.90;;;;;;10414838;28;20057;-64
2021/05/16 05:52:38;;;;;;;3.13;1.02;;;10.60;99.90;;;;;;10416607;28;20042;-65
2021/05/16 05:57:40;;;;;;;5.00;0.95;;;10.60;99.90;;;;;;10400188;28;20059;-65
2021/05/16 06:02:42;;;;;;;4.30;1.63;;;10.50;99.90;;;;;;10416277;28;20049;-64
2021/05/16 06:07:44;;;;;;;2.90;1.10;;;10.40;99.90;;;;;;10415515;28;20053;-64
2021/05/16 06:12:45;;;;;;;3.10;1.13;;;10.50;99.90;;;;;;10418628;28;20080;-65
2021/05/16 06:17:47;;;;;;;3.35;0.95;;;10.50;99.90;;;;;;10413781;28;20061;-65
2021/05/16 06:22:49;;;;;;;4.97;1.35;;;10.80;99.90;;;;;;10416642;28;20095;-65
2021/05/16 06:27:50;;;;;;;3.92;1.50;;;10.80;99.90;;;;;;10417062;28;20053;-65
2021/05/16 06:32:53;;;;;;;4.55;1.45;;;10.90;99.90;;;;;;10413687;28;20053;-62
2021/05/16 06:37:54;;;;;;;3.25;1.55;;;10.90;99.90;;;;;;10416042;28;20110;-62
2021/05/16 06:42:56;;;;;;;3.08;1.75;;;11.00;99.90;;;;;;10416303;28;20800;-62
2021/05/16 06:47:57;;;;;;;4.43;1.48;;;11.20;99.90;;;;;;10411155;28;20049;-63
2021/05/16 06:52:59;;;;;;;3.38;1.42;;;11.40;99.90;;;;;;10412465;28;20057;-62
2021/05/16 06:58:01;;;;;;;4.40;1.38;;;11.80;99.90;;;;;;10416765;28;20037;-62
2021/05/16 07:03:03;;;;;;;5.07;1.70;;;11.90;99.90;;;;;;10415031;28;20052;-62
2021/05/16 07:08:05;;;;;;;4.55;1.83;;;11.80;99.90;;;;;;10398668;28;20049;-62
2021/05/16 07:13:06;;;;;;;3.03;1.90;;;11.80;99.90;;;;;;10413928;28;20056;-62
2021/05/16 07:18:08;;;;;;;3.38;2.15;;;11.60;99.90;;;;;;10419417;28;20052;-61
2021/05/16 07:23:10;;;;;;;8.80;4.28;;;11.20;99.90;;;;;;10408693;28;20049;-63
2021/05/16 07:28:11;;;;;;;26.95;8.65;;;11.30;99.90;;;;;;10415025;28;20107;-63
2021/05/16 07:33:13;;;;;;;10.05;3.67;;;10.90;99.90;;;;;;10414904;28;20053;-64
2021/05/16 07:38:15;;;;;;;4.38;2.60;;;11.00;99.90;;;;;;10417750;28;20399;-65
2021/05/16 07:43:17;;;;;;;5.38;3.00;;;10.80;99.90;;;;;;10412518;28;20156;-65
2021/05/16 07:48:19;;;;;;;4.72;3.30;;;11.00;99.90;;;;;;10411878;28;20102;-64
2021/05/16 07:53:21;;;;;;;4.57;2.78;;;11.10;99.90;;;;;;10412385;28;20106;-65
2021/05/16 07:58:23;;;;;;;5.97;3.20;;;11.20;99.90;;;;;;10410678;28;20072;-64
2021/05/16 08:03:25;;;;;;;6.30;3.85;;;11.00;99.90;;;;;;10414010;28;20110;-63
2021/05/16 08:08:26;;;;;;;5.70;2.45;;;11.00;99.90;;;;;;10421263;28;20083;-64
2021/05/16 08:13:28;;;;;;;3.83;2.65;;;10.90;99.90;;;;;;10395236;28;20053;-63
2021/05/16 08:18:30;;;;;;;4.40;1.70;;;11.10;99.90;;;;;;10411683;28;20049;-63
2021/05/16 08:23:32;;;;;;;4.82;1.80;;;11.00;99.90;;;;;;10415369;28;20126;-63
2021/05/16 08:28:33;;;;;;;3.30;1.30;;;11.20;99.90;;;;;;10410552;28;20048;-63
2021/05/16 08:33:35;;;;;;;5.15;1.30;;;11.50;99.90;;;;;;10409556;28;20041;-63
2021/05/16 08:38:37;;;;;;;2.97;1.33;;;12.00;99.90;;;;;;10408450;28;20106;-63
2021/05/16 08:43:39;;;;;;;5.75;1.10;;;12.10;99.90;;;;;;10402878;28;20060;-64
2021/05/16 08:48:41;;;;;;;7.50;1.15;;;12.20;99.90;;;;;;10409355;28;20041;-64
2021/05/16 08:53:43;;;;;;;2.05;1.10;;;12.00;99.90;;;;;;10409992;28;20566;-64
2021/05/16 08:58:45;;;;;;;4.90;1.15;;;12.10;99.90;;;;;;10408044;28;20083;-64
2021/05/16 09:03:47;;;;;;;1.85;0.60;;;12.20;99.90;;;;;;10412130;28;20072;-64
2021/05/16 09:08:49;;;;;;;5.65;0.98;;;11.90;99.90;;;;;;10411202;28;20057;-64
2021/05/16 09:13:54;;;;;;;3.35;0.60;;;11.70;99.90;;;;;;10408945;28;20061;-64
2021/05/16 09:18:56;;;;;;;4.53;1.70;;;11.60;99.90;;;;;;10409217;28;20046;-66
2021/05/16 09:24:04;;;;;;;4.00;0.20;;;11.40;99.90;;;;;;10393090;28;20610;-65
2021/05/16 09:29:29;;;;;;;0.80;0.20;;;9.70;99.90;;;;;;10398839;28;20071;-65
2021/05/16 09:34:31;;;;;;;3.47;0.47;;;9.80;99.90;;;;;;10370200;28;20053;-64
2021/05/16 09:39:38;;;;;;;6.22;1.08;;;10.60;99.90;;;;;;10414331;28;20087;-64
2021/05/16 09:44:40;;;;;;;6.27;1.23;;;11.40;99.90;;;;;;10412896;28;20049;-64
2021/05/16 09:49:51;;;;;;;4.00;0.85;;;11.80;99.90;;;;;;10415140;28;20123;-63
2021/05/16 09:55:11;;;;;;;2.90;0.60;;;12.20;99.90;;;;;;10411393;28;20048;-62
2021/05/16 10:00:15;;;;;;;6.07;0.60;;;12.70;99.90;;;;;;10411353;28;20049;-62
2021/05/16 10:05:16;;;;;;;3.00;0.50;;;12.80;99.90;;;;;;10418542;28;20135;-61
2021/05/16 10:10:18;;;;;;;2.70;0.75;;;12.90;99.90;;;;;;10416352;28;20061;-61
2021/05/16 10:15:25;;;;;;;0.98;0.30;;;12.90;99.90;;;;;;10415482;28;20056;-61
2021/05/16 10:20:28;;;;;;;2.95;0.38;;;12.80;99.90;;;;;;10412862;28;20053;-62
2021/05/16 10:25:47;;;;;;;4.80;0.30;;;13.20;99.90;;;;;;10414396;28;20107;-64
2021/05/16 10:31:11;;;;;;;1.73;0.10;;;13.80;99.90;;;;;;10391152;28;20565;-64
2021/05/16 10:36:33;;;;;;;2.75;0.30;;;14.30;99.90;;;;;;10415897;28;20057;-62
2021/05/16 10:41:34;;;;;;;3.88;0.40;;;14.90;99.90;;;;;;10360549;28;20554;-60
2021/05/16 10:46:36;;;;;;;1.85;0.38;;;15.20;99.90;;;;;;10417207;28;20103;-61
2021/05/16 10:51:38;;;;;;;3.70;0.30;;;15.50;99.90;;;;;;10413762;28;20058;-61
2021/05/16 10:56:39;;;;;;;2.97;0.20;;;15.70;99.90;;;;;;10416375;28;20049;-63
2021/05/16 11:01:41;;;;;;;2.38;0.28;;;15.60;99.90;;;;;;10414374;28;20042;-62
2021/05/16 11:06:43;;;;;;;1.95;0.20;;;15.90;99.90;;;;;;10414024;28;20057;-63
2021/05/16 11:11:50;;;;;;;3.40;0.40;;;16.00;96.20;;;;;;10420294;28;20048;-63
2021/05/16 11:17:01;;;;;;;1.52;0.30;;;16.20;91.10;;;;;;10412837;28;20053;-61
2021/05/16 11:22:17;;;;;;;1.20;0.28;;;16.20;92.80;;;;;;10416534;28;20068;-63
2021/05/16 11:27:23;;;;;;;4.70;0.22;;;16.50;93.10;;;;;;10410375;28;20691;-63
2021/05/16 11:32:30;;;;;;;2.30;0.37;;;16.20;86.30;;;;;;10409073;28;20110;-65
2021/05/16 11:37:32;;;;;;;1.65;0.25;;;16.20;90.30;;;;;;10389281;28;20673;-62
2021/05/16 11:42:34;;;;;;;1.38;0.30;;;16.60;90.70;;;;;;10417803;28;20057;-62
2021/05/16 11:47:41;;;;;;;1.45;0.20;;;16.80;86.40;;;;;;10415717;28;20045;-64
2021/05/16 11:52:43;;;;;;;1.58;0.20;;;17.20;85.30;;;;;;10410086;28;20053;-63
2021/05/16 11:57:46;;;;;;;3.40;0.30;;;17.20;81.80;;;;;;10413456;28;20049;-62
2021/05/16 12:02:48;;;;;;;4.97;0.60;;;17.20;82.30;;;;;;10411182;28;20049;-63
2021/05/16 12:07:49;;;;;;;6.07;0.65;;;17.70;83.70;;;;;;10414929;28;20527;-62
2021/05/16 12:12:51;;;;;;;3.33;0.20;;;17.10;83.40;;;;;;10391465;28;20543;-62
2021/05/16 12:17:53;;;;;;;3.40;0.20;;;17.30;82.10;;;;;;10413509;28;20079;-64
2021/05/16 12:22:56;;;;;;;1.60;0.30;;;16.70;82.60;;;;;;10413966;28;20087;-64
2021/05/16 12:28:01;;;;;;;4.30;0.30;;;16.30;88.40;;;;;;10409936;28;20053;-64
2021/05/16 12:33:03;;;;;;;1.83;0.10;;;16.10;90.50;;;;;;10411208;28;20384;-63
2021/05/16 12:38:15;;;;;;;2.20;0.13;;;16.60;90.50;;;;;;10410911;28;20048;-63
2021/05/16 12:43:20;;;;;;;2.08;0.25;;;16.70;88.10;;;;;;10390634;28;20061;-63
2021/05/16 12:48:23;;;;;;;1.83;0.20;;;17.20;88.10;;;;;;10410791;28;20060;-63
2021/05/16 12:53:27;;;;;;;3.45;0.40;;;16.80;83.40;;;;;;10409628;28;20053;-63
2021/05/16 12:58:33;;;;;;;1.88;0.20;;;16.50;80.20;;;;;;10416577;28;20057;-64
2021/05/16 13:03:36;;;;;;;4.45;0.30;;;16.40;80.90;;;;;;10406852;28;20080;-64
2021/05/16 13:08:38;;;;;;;1.45;0.10;;;16.40;90.00;;;;;;10416402;28;20060;-64
2021/05/16 13:13:44;;;;;;;3.25;0.20;;;16.60;86.60;;;;;;10415240;28;20068;-64
2021/05/16 13:18:52;;;;;;;1.13;0.10;;;17.20;79.50;;;;;;10418871;28;20044;-63
2021/05/16 13:23:58;;;;;;;0.75;0.13;;;18.00;79.60;;;;;;10394577;28;20037;-63
2021/05/16 13:29:00;;;;;;;3.27;0.20;;;17.70;76.60;;;;;;10417775;28;20079;-64
2021/05/16 13:34:03;;;;;;;1.65;0.20;;;18.80;77.60;;;;;;10401316;28;20058;-64
2021/05/16 13:39:05;;;;;;;3.38;0.20;;;19.20;75.20;;;;;;10417156;28;20060;-62
2021/05/16 13:44:07;;;;;;;0.63;0.20;;;18.40;73.60;;;;;;10373624;28;20037;-63
2021/05/16 13:49:10;;;;;;;3.08;0.35;;;18.30;74.90;;;;;;10415704;28;20055;-63
2021/05/16 13:54:12;;;;;;;0.68;0.20;;;19.60;75.50;;;;;;10401336;28;20045;-62
2021/05/16 13:59:14;;;;;;;2.17;0.25;;;20.80;71.10;;;;;;10418665;28;20052;-62
2021/05/16 14:04:16;;;;;;;2.92;0.20;;;20.00;69.00;;;;;;10418449;28;20061;-63
2021/05/16 14:09:18;;;;;;;2.42;0.40;;;19.40;73.20;;;;;;10421015;28;20057;-61
2021/05/16 14:14:20;;;;;;;2.08;0.40;;;19.00;69.40;;;;;;10421407;28;20134;-61
2021/05/16 14:19:21;;;;;;;4.13;0.40;;;19.00;72.50;;;;;;10417600;28;20049;-61
2021/05/16 14:24:23;;;;;;;11.05;0.57;;;20.10;75.10;;;;;;10420192;28;20048;-62
2021/05/16 14:29:25;;;;;;;4.20;0.30;;;20.00;74.90;;;;;;10399764;28;20057;-62
2021/05/16 14:34:27;;;;;;;3.72;0.20;;;19.40;67.00;;;;;;10416414;28;20488;-62
2021/05/16 14:39:33;;;;;;;;;;;19.50;68.20;;;;;;10411736;28;20061;-66
2021/05/16 14:44:35;;;;;;;3.35;0.30;;;18.70;66.90;;;;;;10417308;28;19925;-65
2021/05/16 14:49:37;;;;;;;3.85;0.25;;;18.00;69.10;;;;;;10396315;28;20635;-65
2021/05/16 14:54:39;;;;;;;2.00;0.25;;;18.30;69.40;;;;;;10417613;28;20455;-65
2021/05/16 14:59:40;;;;;;;1.70;0.20;;;18.40;67.10;;;;;;10416471;28;20180;-65
2021/05/16 15:04:43;;;;;;;4.35;0.30;;;19.20;64.80;;;;;;10397179;28;20079;-65
2021/05/16 15:09:45;;;;;;;3.15;1.05;;;18.80;62.70;;;;;;10400110;28;20487;-65
2021/05/16 15:14:48;;;;;;;2.63;0.30;;;18.50;63.80;;;;;;10407566;28;20049;-65
2021/05/16 15:19:50;;;;;;;2.53;0.20;;;19.10;62.70;;;;;;10412138;28;20044;-65
2021/05/16 15:24:52;;;;;;;2.17;0.20;;;19.30;63.20;;;;;;10415071;28;20505;-65
2021/05/16 15:29:54;;;;;;;3.25;0.20;;;19.80;61.10;;;;;;10412414;28;20048;-65
2021/05/16 15:35:00;;;;;;;4.50;0.30;;;19.80;61.20;;;;;;10414300;28;20041;-65
2021/05/16 15:40:03;;;;;;;2.75;0.30;;;18.90;60.70;;;;;;10409357;28;20110;-65
2021/05/16 15:45:06;;;;;;;7.22;0.30;;;18.90;61.60;;;;;;10395879;28;20041;-65
2021/05/16 15:50:08;;;;;;;3.53;0.40;;;19.40;59.70;;;;;;10398082;28;22612;-66
2021/05/16 15:55:11;;;;;;;1.33;0.20;;;19.00;59.00;;;;;;10410818;28;20049;-65
2021/05/16 16:00:14;;;;;;;2.38;0.50;;;18.80;61.60;;;;;;10408622;28;20184;-66
2021/05/16 16:05:16;;;;;;;3.08;0.30;;;18.50;62.30;;;;;;10413387;28;20053;-67
2021/05/16 16:10:18;;;;;;;5.30;0.77;;;18.20;63.50;;;;;;10414406;28;20195;-66
2021/05/16 16:15:20;;;;;;;5.22;0.30;;;18.20;65.50;;;;;;10411442;28;20049;-66
2021/05/16 16:20:22;;;;;;;6.00;0.30;;;17.80;67.70;;;;;;10409685;28;20111;-68
2021/05/16 16:25:24;;;;;;;4.88;0.57;;;17.70;67.30;;;;;;10409143;28;20058;-67
2021/05/16 16:30:26;;;;;;;4.75;0.30;;;16.30;78.30;;;;;;10413388;28;20106;-69
2021/05/16 16:35:30;;;;;;;3.53;0.30;;;15.00;93.50;;;;;;10389719;28;20087;-64
2021/05/16 16:40:32;;;;;;;2.53;0.28;;;14.20;99.90;;;;;;10414498;28;20107;-65
2021/05/16 16:45:33;;;;;;;0.82;0.20;;;14.00;99.90;;;;;;10408125;28;20172;-64
2021/05/16 16:50:35;;;;;;;2.90;0.93;;;13.90;99.20;;;;;;10410720;28;20049;-59
2021/05/16 16:55:37;;;;;;;2.17;0.63;;;13.90;99.90;;;;;;10412377;28;20468;-60
2021/05/16 17:00:39;;;;;;;1.55;0.20;;;13.80;99.90;;;;;;10406251;28;20048;-62
2021/05/16 17:05:42;;;;;;;1.95;0.73;;;13.80;99.90;;;;;;10372609;28;20624;-61
2021/05/16 17:10:45;;;;;;;1.63;0.15;;;13.60;99.90;;;;;;10392417;28;20127;-60
2021/05/16 17:15:47;;;;;;;1.40;0.20;;;13.40;99.90;;;;;;10402585;28;20052;-60
2021/05/16 17:20:49;;;;;;;4.05;0.20;;;13.30;99.90;;;;;;10394770;28;20053;-61
2021/05/16 17:25:53;;;;;;;0.73;0.20;;;13.10;99.90;;;;;;10382736;28;20042;-61
2021/05/16 17:30:55;;;;;;;1.77;0.50;;;13.00;99.90;;;;;;10389930;28;20563;-61
2021/05/16 17:35:59;;;;;;;1.85;0.20;;;12.60;99.90;;;;;;10385393;28;20431;-61
2021/05/16 17:41:01;;;;;;;0.35;0.20;;;12.10;99.90;;;;;;10371512;28;20478;-61
2021/05/16 17:46:03;;;;;;;1.92;0.75;;;11.70;99.90;;;;;;10336057;28;20131;-59
2021/05/16 17:51:10;;;;;;;2.85;0.20;;;11.30;99.90;;;;;;10374376;28;20075;-61
2021/05/16 17:56:12;;;;;;;1.95;0.40;;;10.80;99.90;;;;;;10406443;28;20059;-60
2021/05/16 18:01:38;;;;;;;1.85;0.32;;;10.40;99.90;;;;;;10323619;28;20443;-62
2021/05/16 18:06:40;;;;;;;1.75;0.20;;;10.30;99.90;;;;;;10400849;28;20491;-61
2021/05/16 18:11:42;;;;;;;1.88;0.20;;;10.30;99.90;;;;;;10422717;28;20052;-58
2021/05/16 18:16:45;;;;;;;1.42;0.20;;;10.20;99.90;;;;;;10412239;28;20046;-60
2021/05/16 18:21:46;;;;;;;1.50;0.47;;;10.40;99.90;;;;;;10416858;28;20111;-61
2021/05/16 18:26:48;;;;;;;2.40;0.28;;;10.40;99.90;;;;;;10414428;28;20107;-61
2021/05/16 18:31:50;;;;;;;1.73;0.10;;;10.40;99.90;;;;;;10394331;28;20040;-61
2021/05/16 18:36:52;;;;;;;4.07;0.90;;;10.50;99.90;;;;;;10401129;28;20049;-61
2021/05/16 18:41:54;;;;;;;2.10;0.40;;;10.50;99.90;;;;;;10413897;28;20118;-60
2021/05/16 18:46:55;;;;;;;0.88;0.30;;;10.50;99.90;;;;;;10422652;28;20087;-60
2021/05/16 18:51:58;;;;;;;1.65;0.20;;;10.50;99.90;;;;;;10409913;28;20098;-60
2021/05/16 18:57:00;;;;;;;4.50;0.28;;;10.60;99.90;;;;;;10419936;28;20049;-60
2021/05/16 19:02:02;;;;;;;1.05;0.20;;;10.70;99.90;;;;;;10402934;28;20045;-60
2021/05/16 19:07:04;;;;;;;5.15;0.40;;;10.70;99.90;;;;;;10414756;28;20095;-60
2021/05/16 19:12:07;;;;;;;7.30;0.30;;;10.40;99.90;;;;;;10417737;28;20084;-61
2021/05/16 19:17:09;;;;;;;0.90;0.25;;;10.60;99.90;;;;;;10417724;28;20494;-61
2021/05/16 19:22:11;;;;;;;0.55;0.20;;;10.60;99.90;;;;;;10414671;28;20060;-60
2021/05/16 19:27:17;;;;;;;1.27;0.20;;;10.60;99.90;;;;;;10413066;28;20084;-61
2021/05/16 19:32:19;;;;;;;3.22;0.30;;;10.60;99.90;;;;;;10419430;28;20523;-61
2021/05/16 19:37:23;;;;;;;2.72;0.30;;;10.50;99.90;;;;;;10415115;28;20055;-61
2021/05/16 19:42:24;;;;;;;2.13;0.30;;;10.60;99.90;;;;;;10412754;28;20116;-61
2021/05/16 19:47:27;;;;;;;2.47;0.50;;;10.50;99.90;;;;;;10412102;28;20060;-61
2021/05/16 19:52:29;;;;;;;2.35;0.50;;;10.50;99.90;;;;;;10411441;28;20122;-61
2021/05/16 19:57:30;;;;;;;4.07;0.50;;;10.40;99.90;;;;;;10414281;28;20061;-62
2021/05/16 20:02:32;;;;;;;2.90;0.47;;;10.30;99.90;;;;;;10411428;28;20053;-62
2021/05/16 20:07:36;;;;;;;2.30;0.40;;;10.30;99.90;;;;;;10411910;28;20049;-61
2021/05/16 20:12:38;;;;;;;1.40;0.50;;;10.30;99.90;;;;;;10415345;28;20049;-60
2021/05/16 20:17:41;;;;;;;4.30;0.95;;;10.40;99.90;;;;;;10410793;28;20053;-60
2021/05/16 20:22:47;;;;;;;1.20;0.43;;;10.40;99.90;;;;;;10415436;28;20037;-60
2021/05/16 20:27:49;;;;;;;2.38;0.88;;;10.40;99.90;;;;;;10393861;28;20041;-61
2021/05/16 20:32:59;;;;;;;2.72;0.70;;;10.40;99.90;;;;;;10413753;28;20110;-61
2021/05/16 20:38:01;;;;;;;1.45;0.43;;;10.50;99.90;;;;;;10409522;28;20045;-61
2021/05/16 20:43:08;;;;;;;7.07;0.60;;;10.50;99.90;;;;;;10412437;28;20048;-60
2021/05/16 20:48:11;;;;;;;2.35;0.73;;;10.60;99.90;;;;;;10414094;28;20099;-61
2021/05/16 20:53:16;;;;;;;6.22;1.02;;;10.60;99.90;;;;;;10388241;28;20132;-60
2021/05/16 20:58:18;;;;;;;3.47;1.05;;;10.60;99.90;;;;;;10409192;28;20052;-60
2021/05/16 21:03:20;;;;;;;3.83;1.10;;;10.60;99.90;;;;;;10416032;28;20794;-59
2021/05/16 21:08:22;;;;;;;4.18;1.20;;;10.60;99.90;;;;;;10413741;28;20057;-60
2021/05/16 21:13:25;;;;;;;8.35;1.50;;;10.50;99.90;;;;;;10407066;28;20507;-61
2021/05/16 21:18:26;;;;;;;9.27;1.77;;;10.50;99.90;;;;;;10415131;28;20368;-58
2021/05/16 21:23:28;;;;;;;3.25;1.60;;;10.40;99.90;;;;;;10423462;28;20080;-60
2021/05/16 21:28:30;;;;;;;2.85;1.67;;;10.40;99.90;;;;;;10418113;28;20052;-59
2021/05/16 21:33:35;;;;;;;6.68;3.03;;;10.40;99.90;;;;;;10421681;28;20353;-59
2021/05/16 21:38:37;;;;;;;9.27;4.07;;;10.40;99.90;;;;;;10418644;28;20111;-59
2021/05/16 21:43:39;;;;;;;7.57;2.97;;;10.40;99.90;;;;;;10418739;28;20057;-59
2021/05/16 21:48:41;;;;;;;5.28;2.75;;;10.40;99.90;;;;;;10416469;28;20115;-60
2021/05/16 21:53:44;;;;;;;9.48;3.85;;;10.50;99.90;;;;;;10416979;28;20107;-59
2021/05/16 21:58:46;;;;;;;5.78;3.05;;;10.40;99.90;;;;;;10414523;28;20053;-60
2021/05/16 22:03:48;;;;;;;10.35;3.45;;;10.40;99.90;;;;;;10422440;28;20045;-60
2021/05/16 22:08:50;;;;;;;8.68;3.75;;;10.40;99.90;;;;;;10419930;28;20048;-60
2021/05/16 22:13:54;;;;;;;9.85;3.47;;;10.20;99.90;;;;;;10416731;28;20049;-60
2021/05/16 22:18:56;;;;;;;14.35;4.05;;;10.20;99.90;;;;;;10416878;28;20377;-60
2021/05/16 22:23:58;;;;;;;8.48;3.50;;;10.30;99.90;;;;;;10415028;28;20057;-58
2021/05/16 22:28:59;;;;;;;8.75;3.03;;;10.30;99.90;;;;;;10416930;28;20115;-58
2021/05/16 22:34:01;;;;;;;5.45;2.38;;;10.30;99.90;;;;;;10412593;28;20083;-58
2021/05/16 22:39:03;;;;;;;4.97;1.77;;;10.30;99.90;;;;;;10414523;28;20060;-58
2021/05/16 22:44:06;;;;;;;6.32;1.75;;;10.20;99.90;;;;;;10416746;28;20159;-58
2021/05/16 22:49:07;;;;;;;4.88;1.02;;;10.30;99.90;;;;;;10415438;28;20045;-58
2021/05/16 22:54:10;;;;;;;2.90;1.45;;;10.30;99.90;;;;;;10415907;28;20472;-58
2021/05/16 22:59:12;;;;;;;6.18;1.00;;;10.20;99.90;;;;;;10417777;28;20065;-58
2021/05/16 23:04:14;;;;;;;6.32;1.73;;;10.20;99.90;;;;;;10413942;28;20060;-58
2021/05/16 23:09:16;;;;;;;2.50;1.45;;;10.20;99.90;;;;;;10415804;28;20060;-58
2021/05/16 23:14:18;;;;;;;6.28;1.70;;;10.20;99.90;;;;;;10412986;28;20064;-58
2021/05/16 23:19:20;;;;;;;4.25;1.90;;;10.30;99.90;;;;;;10410075;28;20053;-58
2021/05/16 23:24:22;;;;;;;7.68;1.90;;;10.30;99.90;;;;;;10417879;28;20049;-58
2021/05/16 23:29:24;;;;;;;6.32;2.10;;;10.50;99.90;;;;;;10415631;28;20069;-59
2021/05/16 23:34:27;;;;;;;4.47;2.15;;;10.50;99.90;;;;;;10413938;28;20381;-59
2021/05/16 23:39:29;;;;;;;7.47;1.80;;;10.60;99.90;;;;;;10411583;28;20503;-59
2021/05/16 23:44:31;;;;;;;6.53;2.38;;;10.60;99.90;;;;;;10406243;28;20057;-59
2021/05/16 23:49:33;;;;;;;3.85;1.92;;;10.60;99.90;;;;;;10407907;28;20045;-60
2021/05/16 23:54:35;;;;;;;6.43;1.70;;;10.30;99.90;;;;;;10414706;28;20041;-59
2021/05/16 23:59:37;;;;;;;5.85;2.13;;;10.50;99.90;;;;;;10415028;28;20053;-61
